sensor_id;sensor_type;location;lat;lon;timestamp;P1;durP1;ratioP1;P2;durP2;ratioP2
19024;SDS011;9645;51.448;6.260;2024-02-26T00:01:53;17.23;;;3.20;;
19024;SDS011;9645;51.448;6.260;2024-02-26T00:04:22;9.32;;;3.70;;
19024;SDS011;9645;51.448;6.260;2024-02-26T00:06:49;9.50;;;3.33;;
19024;SDS011;9645;51.448;6.260;2024-02-26T00:09:19;5.03;;;3.20;;
19024;SDS011;9645;51.448;6.260;2024-02-26T00:11:46;11.85;;;3.40;;
19024;SDS011;9645;51.448;6.260;2024-02-26T00:14:13;11.25;;;3.35;;
19024;SDS011;9645;51.448;6.260;2024-02-26T00:16:41;5.30;;;3.15;;
19024;SDS011;9645;51.448;6.260;2024-02-26T00:19:10;9.32;;;3.25;;
19024;SDS011;9645;51.448;6.260;2024-02-26T00:21:39;9.07;;;3.33;;
19024;SDS011;9645;51.448;6.260;2024-02-26T00:24:07;6.22;;;3.15;;
19024;SDS011;9645;51.448;6.260;2024-02-26T00:26:34;6.07;;;3.17;;
19024;SDS011;9645;51.448;6.260;2024-02-26T00:29:01;10.82;;;3.25;;
19024;SDS011;9645;51.448;6.260;2024-02-26T00:31:28;6.47;;;3.05;;
19024;SDS011;9645;51.448;6.260;2024-02-26T00:33:56;8.20;;;2.90;;
19024;SDS011;9645;51.448;6.260;2024-02-26T00:36:23;9.20;;;3.10;;
19024;SDS011;9645;51.448;6.260;2024-02-26T00:38:50;7.82;;;3.30;;
19024;SDS011;9645;51.448;6.260;2024-02-26T00:41:17;7.72;;;3.45;;
19024;SDS011;9645;51.448;6.260;2024-02-26T00:43:44;5.18;;;3.25;;
19024;SDS011;9645;51.448;6.260;2024-02-26T00:46:11;7.97;;;3.50;;
19024;SDS011;9645;51.448;6.260;2024-02-26T00:48:37;8.70;;;3.42;;
19024;SDS011;9645;51.448;6.260;2024-02-26T00:51:06;18.45;;;3.85;;
19024;SDS011;9645;51.448;6.260;2024-02-26T00:53:33;7.93;;;3.58;;
19024;SDS011;9645;51.448;6.260;2024-02-26T00:56:00;4.85;;;2.90;;
19024;SDS011;9645;51.448;6.260;2024-02-26T00:58:27;15.75;;;3.97;;
19024;SDS011;9645;51.448;6.260;2024-02-26T01:00:54;12.07;;;3.90;;
19024;SDS011;9645;51.448;6.260;2024-02-26T01:03:21;5.35;;;2.92;;
19024;SDS011;9645;51.448;6.260;2024-02-26T01:05:48;7.38;;;3.58;;
19024;SDS011;9645;51.448;6.260;2024-02-26T01:08:16;5.82;;;3.22;;
19024;SDS011;9645;51.448;6.260;2024-02-26T01:10:43;4.60;;;3.00;;
19024;SDS011;9645;51.448;6.260;2024-02-26T01:13:10;9.25;;;2.92;;
19024;SDS011;9645;51.448;6.260;2024-02-26T01:15:37;5.72;;;3.13;;
19024;SDS011;9645;51.448;6.260;2024-02-26T01:18:04;12.02;;;3.40;;
19024;SDS011;9645;51.448;6.260;2024-02-26T01:20:31;14.75;;;3.67;;
19024;SDS011;9645;51.448;6.260;2024-02-26T01:22:58;10.45;;;4.05;;
19024;SDS011;9645;51.448;6.260;2024-02-26T01:25:26;6.60;;;3.20;;
19024;SDS011;9645;51.448;6.260;2024-02-26T01:27:53;10.48;;;3.15;;
19024;SDS011;9645;51.448;6.260;2024-02-26T01:30:20;8.07;;;3.47;;
19024;SDS011;9645;51.448;6.260;2024-02-26T01:32:47;7.03;;;3.45;;
19024;SDS011;9645;51.448;6.260;2024-02-26T01:35:14;7.65;;;3.70;;
19024;SDS011;9645;51.448;6.260;2024-02-26T01:37:41;7.70;;;3.40;;
19024;SDS011;9645;51.448;6.260;2024-02-26T01:40:09;9.80;;;3.15;;
19024;SDS011;9645;51.448;6.260;2024-02-26T01:42:39;10.43;;;4.15;;
19024;SDS011;9645;51.448;6.260;2024-02-26T01:45:06;9.70;;;3.90;;
19024;SDS011;9645;51.448;6.260;2024-02-26T01:47:40;11.70;;;3.40;;
19024;SDS011;9645;51.448;6.260;2024-02-26T01:50:07;9.02;;;4.20;;
19024;SDS011;9645;51.448;6.260;2024-02-26T01:52:35;12.05;;;4.00;;
19024;SDS011;9645;51.448;6.260;2024-02-26T01:55:02;13.88;;;3.80;;
19024;SDS011;9645;51.448;6.260;2024-02-26T01:57:29;9.57;;;3.78;;
19024;SDS011;9645;51.448;6.260;2024-02-26T01:59:58;9.23;;;2.83;;
19024;SDS011;9645;51.448;6.260;2024-02-26T02:02:24;7.65;;;3.63;;
19024;SDS011;9645;51.448;6.260;2024-02-26T02:04:52;6.82;;;3.88;;
19024;SDS011;9645;51.448;6.260;2024-02-26T02:07:20;8.55;;;3.05;;
19024;SDS011;9645;51.448;6.260;2024-02-26T02:09:49;6.00;;;3.35;;
19024;SDS011;9645;51.448;6.260;2024-02-26T02:12:16;7.85;;;3.40;;
19024;SDS011;9645;51.448;6.260;2024-02-26T02:14:43;6.85;;;3.60;;
19024;SDS011;9645;51.448;6.260;2024-02-26T02:17:14;7.68;;;3.83;;
19024;SDS011;9645;51.448;6.260;2024-02-26T02:19:41;7.38;;;3.20;;
19024;SDS011;9645;51.448;6.260;2024-02-26T02:22:09;11.05;;;3.60;;
19024;SDS011;9645;51.448;6.260;2024-02-26T02:24:36;10.75;;;4.47;;
19024;SDS011;9645;51.448;6.260;2024-02-26T02:27:03;12.57;;;4.22;;
19024;SDS011;9645;51.448;6.260;2024-02-26T02:29:31;8.27;;;3.63;;
19024;SDS011;9645;51.448;6.260;2024-02-26T02:31:58;6.80;;;3.30;;
19024;SDS011;9645;51.448;6.260;2024-02-26T02:34:27;5.47;;;2.67;;
19024;SDS011;9645;51.448;6.260;2024-02-26T02:36:54;12.82;;;3.88;;
19024;SDS011;9645;51.448;6.260;2024-02-26T02:39:23;7.07;;;3.70;;
19024;SDS011;9645;51.448;6.260;2024-02-26T02:41:49;10.40;;;3.70;;
19024;SDS011;9645;51.448;6.260;2024-02-26T02:44:16;6.10;;;2.83;;
19024;SDS011;9645;51.448;6.260;2024-02-26T02:46:43;6.80;;;3.13;;
19024;SDS011;9645;51.448;6.260;2024-02-26T02:49:10;7.90;;;3.35;;
19024;SDS011;9645;51.448;6.260;2024-02-26T02:51:37;9.10;;;4.15;;
19024;SDS011;9645;51.448;6.260;2024-02-26T02:54:04;10.82;;;3.20;;
19024;SDS011;9645;51.448;6.260;2024-02-26T02:56:32;4.35;;;2.95;;
19024;SDS011;9645;51.448;6.260;2024-02-26T02:59:00;6.70;;;2.95;;
19024;SDS011;9645;51.448;6.260;2024-02-26T03:01:28;3.50;;;2.95;;
19024;SDS011;9645;51.448;6.260;2024-02-26T03:03:55;5.43;;;2.72;;
19024;SDS011;9645;51.448;6.260;2024-02-26T03:06:22;7.03;;;2.95;;
19024;SDS011;9645;51.448;6.260;2024-02-26T03:08:51;6.72;;;2.92;;
19024;SDS011;9645;51.448;6.260;2024-02-26T03:11:19;12.48;;;3.35;;
19024;SDS011;9645;51.448;6.260;2024-02-26T03:13:48;7.28;;;3.15;;
19024;SDS011;9645;51.448;6.260;2024-02-26T03:16:15;5.13;;;3.25;;
19024;SDS011;9645;51.448;6.260;2024-02-26T03:18:43;7.72;;;3.28;;
19024;SDS011;9645;51.448;6.260;2024-02-26T03:21:10;4.68;;;3.10;;
19024;SDS011;9645;51.448;6.260;2024-02-26T03:23:37;7.25;;;3.10;;
19024;SDS011;9645;51.448;6.260;2024-02-26T03:26:04;5.60;;;3.10;;
19024;SDS011;9645;51.448;6.260;2024-02-26T03:28:31;10.52;;;5.05;;
19024;SDS011;9645;51.448;6.260;2024-02-26T03:31:00;10.85;;;3.60;;
19024;SDS011;9645;51.448;6.260;2024-02-26T03:33:27;12.57;;;3.85;;
19024;SDS011;9645;51.448;6.260;2024-02-26T03:35:54;7.63;;;3.83;;
19024;SDS011;9645;51.448;6.260;2024-02-26T03:38:21;5.72;;;3.20;;
19024;SDS011;9645;51.448;6.260;2024-02-26T03:40:48;4.40;;;3.30;;
19024;SDS011;9645;51.448;6.260;2024-02-26T03:43:15;6.95;;;3.60;;
19024;SDS011;9645;51.448;6.260;2024-02-26T03:45:42;6.00;;;3.35;;
19024;SDS011;9645;51.448;6.260;2024-02-26T03:48:10;9.73;;;3.67;;
19024;SDS011;9645;51.448;6.260;2024-02-26T03:50:37;5.00;;;3.60;;
19024;SDS011;9645;51.448;6.260;2024-02-26T03:53:04;4.25;;;3.15;;
19024;SDS011;9645;51.448;6.260;2024-02-26T03:55:34;9.95;;;3.97;;
19024;SDS011;9645;51.448;6.260;2024-02-26T03:58:01;8.10;;;3.95;;
19024;SDS011;9645;51.448;6.260;2024-02-26T04:00:28;6.72;;;3.47;;
19024;SDS011;9645;51.448;6.260;2024-02-26T04:02:55;4.45;;;2.95;;
19024;SDS011;9645;51.448;6.260;2024-02-26T04:05:23;10.48;;;4.00;;
19024;SDS011;9645;51.448;6.260;2024-02-26T04:07:50;4.75;;;3.67;;
19024;SDS011;9645;51.448;6.260;2024-02-26T04:10:17;4.60;;;3.08;;
19024;SDS011;9645;51.448;6.260;2024-02-26T04:12:44;7.10;;;3.70;;
19024;SDS011;9645;51.448;6.260;2024-02-26T04:15:12;5.55;;;3.25;;
19024;SDS011;9645;51.448;6.260;2024-02-26T04:17:40;6.45;;;3.20;;
19024;SDS011;9645;51.448;6.260;2024-02-26T04:20:07;6.63;;;3.90;;
19024;SDS011;9645;51.448;6.260;2024-02-26T04:22:40;7.32;;;3.55;;
19024;SDS011;9645;51.448;6.260;2024-02-26T04:25:07;6.60;;;3.38;;
19024;SDS011;9645;51.448;6.260;2024-02-26T04:27:34;6.85;;;3.47;;
19024;SDS011;9645;51.448;6.260;2024-02-26T04:30:02;5.25;;;3.45;;
19024;SDS011;9645;51.448;6.260;2024-02-26T04:32:31;10.60;;;3.55;;
19024;SDS011;9645;51.448;6.260;2024-02-26T04:34:59;6.80;;;3.05;;
19024;SDS011;9645;51.448;6.260;2024-02-26T04:37:26;6.03;;;3.60;;
19024;SDS011;9645;51.448;6.260;2024-02-26T04:39:57;5.10;;;3.58;;
19024;SDS011;9645;51.448;6.260;2024-02-26T04:42:25;7.80;;;3.60;;
19024;SDS011;9645;51.448;6.260;2024-02-26T04:44:52;6.68;;;3.35;;
19024;SDS011;9645;51.448;6.260;2024-02-26T04:47:19;7.35;;;3.90;;
19024;SDS011;9645;51.448;6.260;2024-02-26T04:49:47;4.47;;;3.22;;
19024;SDS011;9645;51.448;6.260;2024-02-26T04:52:14;6.90;;;3.55;;
19024;SDS011;9645;51.448;6.260;2024-02-26T04:54:41;6.82;;;3.67;;
19024;SDS011;9645;51.448;6.260;2024-02-26T04:57:09;9.15;;;3.42;;
19024;SDS011;9645;51.448;6.260;2024-02-26T04:59:36;6.00;;;3.70;;
19024;SDS011;9645;51.448;6.260;2024-02-26T05:02:03;6.32;;;3.30;;
19024;SDS011;9645;51.448;6.260;2024-02-26T05:04:30;6.57;;;3.42;;
19024;SDS011;9645;51.448;6.260;2024-02-26T05:06:57;8.23;;;4.20;;
19024;SDS011;9645;51.448;6.260;2024-02-26T05:09:24;6.80;;;3.30;;
19024;SDS011;9645;51.448;6.260;2024-02-26T05:11:51;6.63;;;4.00;;
19024;SDS011;9645;51.448;6.260;2024-02-26T05:14:19;5.18;;;3.70;;
19024;SDS011;9645;51.448;6.260;2024-02-26T05:16:46;8.50;;;3.97;;
19024;SDS011;9645;51.448;6.260;2024-02-26T05:19:13;6.03;;;3.55;;
19024;SDS011;9645;51.448;6.260;2024-02-26T05:21:40;7.70;;;3.85;;
19024;SDS011;9645;51.448;6.260;2024-02-26T05:24:09;8.63;;;3.70;;
19024;SDS011;9645;51.448;6.260;2024-02-26T05:26:36;6.35;;;3.58;;
19024;SDS011;9645;51.448;6.260;2024-02-26T05:29:03;8.25;;;3.60;;
19024;SDS011;9645;51.448;6.260;2024-02-26T05:31:31;14.65;;;3.75;;
19024;SDS011;9645;51.448;6.260;2024-02-26T05:33:58;6.20;;;3.70;;
19024;SDS011;9645;51.448;6.260;2024-02-26T05:36:25;6.10;;;3.25;;
19024;SDS011;9645;51.448;6.260;2024-02-26T05:38:53;7.03;;;3.78;;
19024;SDS011;9645;51.448;6.260;2024-02-26T05:41:20;10.38;;;3.65;;
19024;SDS011;9645;51.448;6.260;2024-02-26T05:43:51;8.27;;;3.47;;
19024;SDS011;9645;51.448;6.260;2024-02-26T05:46:18;7.78;;;3.90;;
19024;SDS011;9645;51.448;6.260;2024-02-26T05:48:49;9.77;;;3.90;;
19024;SDS011;9645;51.448;6.260;2024-02-26T05:51:17;8.40;;;4.07;;
19024;SDS011;9645;51.448;6.260;2024-02-26T05:53:44;9.32;;;3.70;;
19024;SDS011;9645;51.448;6.260;2024-02-26T05:56:18;6.82;;;3.50;;
19024;SDS011;9645;51.448;6.260;2024-02-26T05:58:46;9.98;;;2.92;;
19024;SDS011;9645;51.448;6.260;2024-02-26T06:01:14;5.82;;;3.08;;
19024;SDS011;9645;51.448;6.260;2024-02-26T06:03:42;10.85;;;3.17;;
19024;SDS011;9645;51.448;6.260;2024-02-26T06:06:11;6.20;;;3.38;;
19024;SDS011;9645;51.448;6.260;2024-02-26T06:08:39;9.48;;;3.35;;
19024;SDS011;9645;51.448;6.260;2024-02-26T06:11:06;13.40;;;3.85;;
19024;SDS011;9645;51.448;6.260;2024-02-26T06:13:33;8.00;;;3.13;;
19024;SDS011;9645;51.448;6.260;2024-02-26T06:16:00;5.85;;;3.40;;
19024;SDS011;9645;51.448;6.260;2024-02-26T06:18:27;6.40;;;3.60;;
19024;SDS011;9645;51.448;6.260;2024-02-26T06:20:55;6.57;;;3.10;;
19024;SDS011;9645;51.448;6.260;2024-02-26T06:23:23;4.97;;;3.25;;
19024;SDS011;9645;51.448;6.260;2024-02-26T06:25:50;9.15;;;3.08;;
19024;SDS011;9645;51.448;6.260;2024-02-26T06:28:17;6.25;;;3.20;;
19024;SDS011;9645;51.448;6.260;2024-02-26T06:30:44;9.13;;;3.55;;
19024;SDS011;9645;51.448;6.260;2024-02-26T06:33:11;7.05;;;3.45;;
19024;SDS011;9645;51.448;6.260;2024-02-26T06:35:39;5.28;;;2.65;;
19024;SDS011;9645;51.448;6.260;2024-02-26T06:38:06;7.07;;;4.40;;
19024;SDS011;9645;51.448;6.260;2024-02-26T06:40:35;6.10;;;3.88;;
19024;SDS011;9645;51.448;6.260;2024-02-26T06:43:02;8.48;;;3.83;;
19024;SDS011;9645;51.448;6.260;2024-02-26T06:45:30;6.47;;;3.60;;
19024;SDS011;9645;51.448;6.260;2024-02-26T06:47:57;10.43;;;3.90;;
19024;SDS011;9645;51.448;6.260;2024-02-26T06:50:24;11.73;;;4.25;;
19024;SDS011;9645;51.448;6.260;2024-02-26T06:52:53;5.60;;;3.35;;
19024;SDS011;9645;51.448;6.260;2024-02-26T06:55:27;6.55;;;3.15;;
19024;SDS011;9645;51.448;6.260;2024-02-26T06:57:55;7.10;;;3.53;;
19024;SDS011;9645;51.448;6.260;2024-02-26T07:00:22;8.25;;;3.50;;
19024;SDS011;9645;51.448;6.260;2024-02-26T07:02:49;5.57;;;3.65;;
19024;SDS011;9645;51.448;6.260;2024-02-26T07:05:16;7.50;;;3.33;;
19024;SDS011;9645;51.448;6.260;2024-02-26T07:07:43;6.05;;;3.60;;
19024;SDS011;9645;51.448;6.260;2024-02-26T07:10:10;5.53;;;3.10;;
19024;SDS011;9645;51.448;6.260;2024-02-26T07:12:37;5.82;;;3.28;;
19024;SDS011;9645;51.448;6.260;2024-02-26T07:15:06;5.07;;;3.00;;
19024;SDS011;9645;51.448;6.260;2024-02-26T07:17:34;6.88;;;3.38;;
19024;SDS011;9645;51.448;6.260;2024-02-26T07:20:01;7.03;;;3.53;;
19024;SDS011;9645;51.448;6.260;2024-02-26T07:22:29;8.40;;;3.33;;
19024;SDS011;9645;51.448;6.260;2024-02-26T07:24:56;9.98;;;3.70;;
19024;SDS011;9645;51.448;6.260;2024-02-26T07:27:23;9.02;;;3.63;;
19024;SDS011;9645;51.448;6.260;2024-02-26T07:29:51;4.15;;;3.05;;
19024;SDS011;9645;51.448;6.260;2024-02-26T07:32:19;6.47;;;3.15;;
19024;SDS011;9645;51.448;6.260;2024-02-26T07:34:47;10.18;;;3.42;;
19024;SDS011;9645;51.448;6.260;2024-02-26T07:37:15;7.50;;;3.35;;
19024;SDS011;9645;51.448;6.260;2024-02-26T07:39:42;7.72;;;3.75;;
19024;SDS011;9645;51.448;6.260;2024-02-26T07:42:09;7.72;;;3.80;;
19024;SDS011;9645;51.448;6.260;2024-02-26T07:44:37;9.02;;;3.72;;
19024;SDS011;9645;51.448;6.260;2024-02-26T07:47:08;5.25;;;3.03;;
19024;SDS011;9645;51.448;6.260;2024-02-26T07:49:37;12.40;;;4.15;;
19024;SDS011;9645;51.448;6.260;2024-02-26T07:52:04;9.52;;;3.50;;
19024;SDS011;9645;51.448;6.260;2024-02-26T07:54:32;5.45;;;3.30;;
19024;SDS011;9645;51.448;6.260;2024-02-26T07:56:59;4.13;;;3.20;;
19024;SDS011;9645;51.448;6.260;2024-02-26T07:59:26;10.18;;;4.22;;
19024;SDS011;9645;51.448;6.260;2024-02-26T08:01:53;9.50;;;3.40;;
19024;SDS011;9645;51.448;6.260;2024-02-26T08:04:28;5.07;;;3.00;;
19024;SDS011;9645;51.448;6.260;2024-02-26T08:06:56;5.50;;;3.33;;
19024;SDS011;9645;51.448;6.260;2024-02-26T08:09:24;11.07;;;3.50;;
19024;SDS011;9645;51.448;6.260;2024-02-26T08:11:51;7.28;;;3.60;;
19024;SDS011;9645;51.448;6.260;2024-02-26T08:14:18;7.40;;;3.20;;
19024;SDS011;9645;51.448;6.260;2024-02-26T08:16:45;6.55;;;3.10;;
19024;SDS011;9645;51.448;6.260;2024-02-26T08:19:14;11.88;;;3.92;;
19024;SDS011;9645;51.448;6.260;2024-02-26T08:21:42;5.85;;;3.58;;
19024;SDS011;9645;51.448;6.260;2024-02-26T08:24:11;5.20;;;3.30;;
19024;SDS011;9645;51.448;6.260;2024-02-26T08:26:38;7.25;;;3.80;;
19024;SDS011;9645;51.448;6.260;2024-02-26T08:29:05;8.13;;;3.90;;
19024;SDS011;9645;51.448;6.260;2024-02-26T08:31:32;8.10;;;3.50;;
19024;SDS011;9645;51.448;6.260;2024-02-26T08:34:02;7.35;;;3.40;;
19024;SDS011;9645;51.448;6.260;2024-02-26T08:36:29;6.18;;;3.25;;
19024;SDS011;9645;51.448;6.260;2024-02-26T08:38:57;5.65;;;2.90;;
19024;SDS011;9645;51.448;6.260;2024-02-26T08:41:26;12.13;;;3.15;;
19024;SDS011;9645;51.448;6.260;2024-02-26T08:43:53;6.25;;;2.95;;
19024;SDS011;9645;51.448;6.260;2024-02-26T08:46:20;5.97;;;3.13;;
19024;SDS011;9645;51.448;6.260;2024-02-26T08:48:47;5.07;;;2.70;;
19024;SDS011;9645;51.448;6.260;2024-02-26T08:51:14;6.63;;;3.28;;
19024;SDS011;9645;51.448;6.260;2024-02-26T08:53:42;4.70;;;3.08;;
19024;SDS011;9645;51.448;6.260;2024-02-26T08:56:08;5.03;;;2.95;;
19024;SDS011;9645;51.448;6.260;2024-02-26T08:58:37;5.35;;;3.20;;
19024;SDS011;9645;51.448;6.260;2024-02-26T09:01:04;4.97;;;3.38;;
19024;SDS011;9645;51.448;6.260;2024-02-26T09:03:31;9.55;;;3.88;;
19024;SDS011;9645;51.448;6.260;2024-02-26T09:05:58;6.93;;;3.55;;
19024;SDS011;9645;51.448;6.260;2024-02-26T09:08:25;5.07;;;3.10;;
19024;SDS011;9645;51.448;6.260;2024-02-26T09:10:53;4.88;;;3.00;;
19024;SDS011;9645;51.448;6.260;2024-02-26T09:13:20;7.47;;;3.20;;
19024;SDS011;9645;51.448;6.260;2024-02-26T09:15:48;8.70;;;4.35;;
19024;SDS011;9645;51.448;6.260;2024-02-26T09:18:15;9.93;;;3.50;;
19024;SDS011;9645;51.448;6.260;2024-02-26T09:20:42;5.45;;;2.95;;
19024;SDS011;9645;51.448;6.260;2024-02-26T09:23:09;8.07;;;3.20;;
19024;SDS011;9645;51.448;6.260;2024-02-26T09:25:36;6.43;;;3.40;;
19024;SDS011;9645;51.448;6.260;2024-02-26T09:28:04;4.38;;;2.90;;
19024;SDS011;9645;51.448;6.260;2024-02-26T09:30:31;4.22;;;2.90;;
19024;SDS011;9645;51.448;6.260;2024-02-26T09:32:59;4.30;;;3.03;;
19024;SDS011;9645;51.448;6.260;2024-02-26T09:35:27;4.88;;;3.25;;
19024;SDS011;9645;51.448;6.260;2024-02-26T09:37:54;6.00;;;3.28;;
19024;SDS011;9645;51.448;6.260;2024-02-26T09:40:21;5.60;;;3.42;;
19024;SDS011;9645;51.448;6.260;2024-02-26T09:42:48;4.88;;;3.03;;
19024;SDS011;9645;51.448;6.260;2024-02-26T09:45:23;4.40;;;2.58;;
19024;SDS011;9645;51.448;6.260;2024-02-26T09:47:52;6.15;;;3.55;;
19024;SDS011;9645;51.448;6.260;2024-02-26T09:50:25;7.85;;;2.92;;
19024;SDS011;9645;51.448;6.260;2024-02-26T09:52:52;4.55;;;3.08;;
19024;SDS011;9645;51.448;6.260;2024-02-26T09:55:20;4.90;;;2.88;;
19024;SDS011;9645;51.448;6.260;2024-02-26T09:57:47;6.32;;;3.55;;
19024;SDS011;9645;51.448;6.260;2024-02-26T10:00:17;5.95;;;3.40;;
19024;SDS011;9645;51.448;6.260;2024-02-26T10:02:45;3.88;;;3.20;;
19024;SDS011;9645;51.448;6.260;2024-02-26T10:05:14;4.40;;;3.05;;
19024;SDS011;9645;51.448;6.260;2024-02-26T10:07:47;5.70;;;3.50;;
19024;SDS011;9645;51.448;6.260;2024-02-26T10:10:14;6.20;;;3.30;;
19024;SDS011;9645;51.448;6.260;2024-02-26T10:12:43;5.20;;;3.20;;
19024;SDS011;9645;51.448;6.260;2024-02-26T10:15:10;6.25;;;3.50;;
19024;SDS011;9645;51.448;6.260;2024-02-26T10:17:37;6.15;;;3.10;;
19024;SDS011;9645;51.448;6.260;2024-02-26T10:20:11;4.72;;;2.50;;
19024;SDS011;9645;51.448;6.260;2024-02-26T10:22:40;3.53;;;2.80;;
19024;SDS011;9645;51.448;6.260;2024-02-26T10:25:09;4.60;;;2.83;;
19024;SDS011;9645;51.448;6.260;2024-02-26T10:27:40;5.35;;;3.20;;
19024;SDS011;9645;51.448;6.260;2024-02-26T10:30:15;6.20;;;3.22;;
19024;SDS011;9645;51.448;6.260;2024-02-26T10:32:44;4.47;;;2.80;;
19024;SDS011;9645;51.448;6.260;2024-02-26T10:35:11;4.05;;;2.90;;
19024;SDS011;9645;51.448;6.260;2024-02-26T10:37:38;7.95;;;3.47;;
19024;SDS011;9645;51.448;6.260;2024-02-26T10:40:07;5.20;;;3.00;;
19024;SDS011;9645;51.448;6.260;2024-02-26T10:42:38;6.03;;;3.45;;
19024;SDS011;9645;51.448;6.260;2024-02-26T10:45:06;4.15;;;3.10;;
19024;SDS011;9645;51.448;6.260;2024-02-26T10:47:34;5.50;;;3.70;;
19024;SDS011;9645;51.448;6.260;2024-02-26T10:50:01;5.15;;;3.05;;
19024;SDS011;9645;51.448;6.260;2024-02-26T10:52:30;5.38;;;3.20;;
19024;SDS011;9645;51.448;6.260;2024-02-26T10:55:00;6.47;;;3.92;;
19024;SDS011;9645;51.448;6.260;2024-02-26T10:57:31;7.18;;;3.75;;
19024;SDS011;9645;51.448;6.260;2024-02-26T11:00:00;11.18;;;3.75;;
19024;SDS011;9645;51.448;6.260;2024-02-26T11:02:30;7.60;;;3.85;;
19024;SDS011;9645;51.448;6.260;2024-02-26T11:05:00;7.20;;;4.05;;
19024;SDS011;9645;51.448;6.260;2024-02-26T11:07:28;4.55;;;3.70;;
19024;SDS011;9645;51.448;6.260;2024-02-26T11:09:57;11.48;;;4.70;;
19024;SDS011;9645;51.448;6.260;2024-02-26T11:12:24;7.30;;;4.43;;
19024;SDS011;9645;51.448;6.260;2024-02-26T11:14:55;8.95;;;4.10;;
19024;SDS011;9645;51.448;6.260;2024-02-26T11:17:23;8.38;;;3.92;;
19024;SDS011;9645;51.448;6.260;2024-02-26T11:19:53;10.13;;;4.38;;
19024;SDS011;9645;51.448;6.260;2024-02-26T11:22:22;10.77;;;5.25;;
19024;SDS011;9645;51.448;6.260;2024-02-26T11:24:51;10.65;;;5.18;;
19024;SDS011;9645;51.448;6.260;2024-02-26T11:27:19;11.82;;;6.10;;
19024;SDS011;9645;51.448;6.260;2024-02-26T11:29:52;14.63;;;6.35;;
19024;SDS011;9645;51.448;6.260;2024-02-26T11:32:21;10.70;;;6.10;;
19024;SDS011;9645;51.448;6.260;2024-02-26T11:34:48;10.45;;;5.97;;
19024;SDS011;9645;51.448;6.260;2024-02-26T11:37:16;10.52;;;5.97;;
19024;SDS011;9645;51.448;6.260;2024-02-26T11:39:44;20.60;;;8.05;;
19024;SDS011;9645;51.448;6.260;2024-02-26T11:42:14;14.65;;;6.82;;
19024;SDS011;9645;51.448;6.260;2024-02-26T11:44:43;12.70;;;6.80;;
19024;SDS011;9645;51.448;6.260;2024-02-26T11:47:11;13.07;;;6.70;;
19024;SDS011;9645;51.448;6.260;2024-02-26T11:49:41;11.27;;;6.47;;
19024;SDS011;9645;51.448;6.260;2024-02-26T11:52:09;13.20;;;6.95;;
19024;SDS011;9645;51.448;6.260;2024-02-26T11:54:40;10.98;;;5.75;;
19024;SDS011;9645;51.448;6.260;2024-02-26T11:57:22;11.43;;;7.10;;
19024;SDS011;9645;51.448;6.260;2024-02-26T11:59:49;10.93;;;6.43;;
19024;SDS011;9645;51.448;6.260;2024-02-26T12:05:15;10.52;;;6.03;;
19024;SDS011;9645;51.448;6.260;2024-02-26T12:07:43;11.18;;;6.22;;
19024;SDS011;9645;51.448;6.260;2024-02-26T12:10:16;13.32;;;6.53;;
19024;SDS011;9645;51.448;6.260;2024-02-26T12:12:50;16.30;;;7.30;;
19024;SDS011;9645;51.448;6.260;2024-02-26T12:15:22;11.57;;;6.70;;
19024;SDS011;9645;51.448;6.260;2024-02-26T12:17:51;14.10;;;7.15;;
19024;SDS011;9645;51.448;6.260;2024-02-26T12:20:21;11.68;;;6.68;;
19024;SDS011;9645;51.448;6.260;2024-02-26T12:22:49;11.63;;;6.32;;
19024;SDS011;9645;51.448;6.260;2024-02-26T12:25:17;11.32;;;6.70;;
19024;SDS011;9645;51.448;6.260;2024-02-26T12:27:48;12.68;;;6.78;;
19024;SDS011;9645;51.448;6.260;2024-02-26T12:30:16;12.57;;;6.60;;
19024;SDS011;9645;51.448;6.260;2024-02-26T12:32:43;12.00;;;6.15;;
19024;SDS011;9645;51.448;6.260;2024-02-26T12:35:11;14.10;;;7.47;;
19024;SDS011;9645;51.448;6.260;2024-02-26T12:37:40;11.43;;;6.45;;
19024;SDS011;9645;51.448;6.260;2024-02-26T12:40:08;16.88;;;7.20;;
19024;SDS011;9645;51.448;6.260;2024-02-26T12:42:35;14.50;;;6.90;;
19024;SDS011;9645;51.448;6.260;2024-02-26T12:45:05;12.27;;;6.25;;
19024;SDS011;9645;51.448;6.260;2024-02-26T12:47:37;24.73;;;6.90;;
19024;SDS011;9645;51.448;6.260;2024-02-26T12:50:05;16.70;;;7.03;;
19024;SDS011;9645;51.448;6.260;2024-02-26T12:52:33;16.77;;;7.65;;
19024;SDS011;9645;51.448;6.260;2024-02-26T12:55:02;16.55;;;8.00;;
19024;SDS011;9645;51.448;6.260;2024-02-26T12:57:31;12.48;;;6.40;;
19024;SDS011;9645;51.448;6.260;2024-02-26T12:59:59;14.88;;;7.00;;
19024;SDS011;9645;51.448;6.260;2024-02-26T13:02:29;12.55;;;6.88;;
19024;SDS011;9645;51.448;6.260;2024-02-26T13:04:57;11.60;;;6.32;;
19024;SDS011;9645;51.448;6.260;2024-02-26T13:07:26;11.95;;;6.30;;
19024;SDS011;9645;51.448;6.260;2024-02-26T13:09:53;14.52;;;7.15;;
19024;SDS011;9645;51.448;6.260;2024-02-26T13:12:23;11.50;;;6.72;;
19024;SDS011;9645;51.448;6.260;2024-02-26T13:14:58;13.07;;;6.47;;
19024;SDS011;9645;51.448;6.260;2024-02-26T13:17:25;15.32;;;7.53;;
19024;SDS011;9645;51.448;6.260;2024-02-26T13:19:53;12.18;;;6.32;;
19024;SDS011;9645;51.448;6.260;2024-02-26T13:22:20;15.02;;;5.70;;
19024;SDS011;9645;51.448;6.260;2024-02-26T13:24:53;15.85;;;6.75;;
19024;SDS011;9645;51.448;6.260;2024-02-26T13:27:22;11.20;;;6.80;;
19024;SDS011;9645;51.448;6.260;2024-02-26T13:30:01;12.65;;;6.50;;
19024;SDS011;9645;51.448;6.260;2024-02-26T13:32:31;14.27;;;7.40;;
19024;SDS011;9645;51.448;6.260;2024-02-26T13:35:05;12.80;;;5.95;;
19024;SDS011;9645;51.448;6.260;2024-02-26T13:37:33;9.00;;;5.63;;
19024;SDS011;9645;51.448;6.260;2024-02-26T13:40:00;16.15;;;7.00;;
19024;SDS011;9645;51.448;6.260;2024-02-26T13:42:32;13.18;;;6.50;;
19024;SDS011;9645;51.448;6.260;2024-02-26T13:44:59;8.88;;;5.30;;
19024;SDS011;9645;51.448;6.260;2024-02-26T13:47:26;10.85;;;5.80;;
19024;SDS011;9645;51.448;6.260;2024-02-26T13:49:55;13.35;;;6.53;;
19024;SDS011;9645;51.448;6.260;2024-02-26T13:52:23;11.02;;;5.25;;
19024;SDS011;9645;51.448;6.260;2024-02-26T13:54:50;10.80;;;5.53;;
19024;SDS011;9645;51.448;6.260;2024-02-26T13:57:18;10.52;;;6.28;;
19024;SDS011;9645;51.448;6.260;2024-02-26T13:59:47;14.80;;;5.90;;
19024;SDS011;9645;51.448;6.260;2024-02-26T14:02:15;13.93;;;6.40;;
19024;SDS011;9645;51.448;6.260;2024-02-26T14:04:42;13.98;;;6.32;;
19024;SDS011;9645;51.448;6.260;2024-02-26T14:07:09;14.85;;;6.40;;
19024;SDS011;9645;51.448;6.260;2024-02-26T14:09:38;13.73;;;6.63;;
19024;SDS011;9645;51.448;6.260;2024-02-26T14:12:08;12.07;;;6.10;;
19024;SDS011;9645;51.448;6.260;2024-02-26T14:14:35;11.38;;;6.15;;
19024;SDS011;9645;51.448;6.260;2024-02-26T14:17:07;13.73;;;6.32;;
19024;SDS011;9645;51.448;6.260;2024-02-26T14:19:34;14.70;;;7.40;;
19024;SDS011;9645;51.448;6.260;2024-02-26T14:22:01;17.90;;;7.57;;
19024;SDS011;9645;51.448;6.260;2024-02-26T14:24:28;14.55;;;7.50;;
19024;SDS011;9645;51.448;6.260;2024-02-26T14:26:55;11.10;;;6.50;;
19024;SDS011;9645;51.448;6.260;2024-02-26T14:29:22;26.42;;;7.20;;
19024;SDS011;9645;51.448;6.260;2024-02-26T14:31:49;11.57;;;6.22;;
19024;SDS011;9645;51.448;6.260;2024-02-26T14:34:19;17.15;;;7.32;;
19024;SDS011;9645;51.448;6.260;2024-02-26T14:36:47;14.25;;;7.80;;
19024;SDS011;9645;51.448;6.260;2024-02-26T14:39:15;14.27;;;7.30;;
19024;SDS011;9645;51.448;6.260;2024-02-26T14:41:42;16.45;;;7.25;;
19024;SDS011;9645;51.448;6.260;2024-02-26T14:44:14;26.75;;;7.78;;
19024;SDS011;9645;51.448;6.260;2024-02-26T14:46:44;20.08;;;7.35;;
19024;SDS011;9645;51.448;6.260;2024-02-26T14:49:11;17.60;;;7.35;;
19024;SDS011;9645;51.448;6.260;2024-02-26T14:51:39;16.45;;;7.18;;
19024;SDS011;9645;51.448;6.260;2024-02-26T14:54:06;17.65;;;7.32;;
19024;SDS011;9645;51.448;6.260;2024-02-26T14:56:33;18.63;;;7.22;;
19024;SDS011;9645;51.448;6.260;2024-02-26T14:59:01;18.60;;;7.50;;
19024;SDS011;9645;51.448;6.260;2024-02-26T15:01:29;16.33;;;7.38;;
19024;SDS011;9645;51.448;6.260;2024-02-26T15:03:57;18.75;;;8.25;;